Time;durP1;ratioP1;P1;durP2;ratioP2;P2;SDS_P1;SDS_P2;PMS_P1;PMS_P2;Temp;Humidity;BMP_temperature;BMP_pressure;BME280_temperature;BME280_humidity;BME280_pressure;Samples;Min_cycle;Max_cycle;Signal;HPM_P1;HPM_P2
2022/09/21 00:01:59;;;;;;;1.97;1.30;;;7.90;99.90;;;;;;5000666;28;20477;-75
2022/09/21 00:04:26;;;;;;;5.87;1.30;;;7.80;99.90;;;;;;5003648;28;20948;-75
2022/09/21 00:06:52;;;;;;;1.37;1.17;;;7.80;99.90;;;;;;5006922;28;20532;-76
2022/09/21 00:09:19;;;;;;;1.20;1.10;;;7.80;99.90;;;;;;5033848;28;20481;-76
2022/09/21 00:11:46;;;;;;;1.13;0.90;;;7.80;99.90;;;;;;5027299;28;20497;-75
2022/09/21 00:14:15;;;;;;;1.73;1.10;;;7.90;99.90;;;;;;5034769;28;20822;-76
2022/09/21 00:16:42;;;;;;;1.33;1.17;;;7.80;99.90;;;;;;5026070;28;20565;-76
2022/09/21 00:19:10;;;;;;;1.23;0.93;;;7.90;99.90;;;;;;5034028;28;20580;-75
2022/09/21 00:21:38;;;;;;;1.80;1.70;;;7.80;99.90;;;;;;5024467;28;20686;-76
2022/09/21 00:24:05;;;;;;;1.43;1.33;;;7.70;99.90;;;;;;5029899;28;20454;-75
2022/09/21 00:26:33;;;;;;;2.13;1.27;;;7.80;99.90;;;;;;5028319;28;20533;-75
2022/09/21 00:29:01;;;;;;;4.20;0.90;;;7.80;99.90;;;;;;5029120;28;20546;-75
2022/09/21 00:31:31;;;;;;;2.40;1.10;;;7.70;99.90;;;;;;5028064;28;20509;-75
2022/09/21 00:33:59;;;;;;;2.43;1.43;;;7.70;99.90;;;;;;5031802;28;20484;-75
2022/09/21 00:36:27;;;;;;;1.10;0.90;;;7.60;99.90;;;;;;5028710;28;20623;-75
2022/09/21 00:38:56;;;;;;;4.27;1.07;;;7.60;99.90;;;;;;5008188;28;20476;-76
2022/09/21 00:41:24;;;;;;;1.30;1.03;;;7.50;99.90;;;;;;5023275;28;20471;-75
2022/09/21 00:44:23;;;;;;;1.87;1.77;;;7.50;99.90;;;;;;5022850;28;20548;-76
2022/09/21 00:46:55;;;;;;;1.50;1.30;;;7.40;99.90;;;;;;5033666;28;20538;-75
2022/09/21 00:49:23;;;;;;;2.57;1.60;;;7.40;99.90;;;;;;5028343;28;20489;-76
2022/09/21 00:51:52;;;;;;;2.80;1.30;;;7.30;99.90;;;;;;5024623;27;20823;-74
2022/09/21 00:54:26;;;;;;;1.70;1.60;;;7.30;99.90;;;;;;5023906;28;20489;-75
2022/09/21 00:56:55;;;;;;;2.23;1.63;;;7.30;99.90;;;;;;5022881;28;20598;-75
2022/09/21 00:59:23;;;;;;;1.70;1.60;;;7.20;99.90;;;;;;5028124;28;20466;-75
2022/09/21 01:01:51;;;;;;;4.70;1.57;;;7.20;99.90;;;;;;5033809;28;20558;-75
2022/09/21 01:04:19;;;;;;;1.33;1.23;;;7.10;99.90;;;;;;5026183;28;20525;-75
2022/09/21 01:06:46;;;;;;;2.07;1.70;;;7.00;99.90;;;;;;5021016;28;20469;-75
2022/09/21 01:09:14;;;;;;;3.40;1.80;;;7.00;99.90;;;;;;5027777;28;20936;-75
2022/09/21 01:11:55;;;;;;;1.50;1.40;;;7.00;99.90;;;;;;5027851;28;20464;-76
2022/09/21 01:14:43;;;;;;;2.70;1.40;;;6.90;99.90;;;;;;5031953;28;20597;-75
2022/09/21 01:17:18;;;;;;;2.13;1.93;;;6.90;99.90;;;;;;5029272;28;20582;-75
2022/09/21 01:20:20;;;;;;;1.90;1.67;;;6.90;99.90;;;;;;5029953;28;20500;-74
2022/09/21 01:23:02;;;;;;;2.17;2.07;;;6.90;99.90;;;;;;5031141;28;20487;-75
2022/09/21 01:25:38;;;;;;;3.77;3.47;;;6.80;99.90;;;;;;5024707;28;20488;-75
2022/09/21 01:28:19;;;;;;;1.70;1.60;;;6.80;99.90;;;;;;5018887;28;21022;-75
2022/09/21 01:30:50;;;;;;;1.83;1.73;;;6.80;99.90;;;;;;5025266;28;20816;-75
2022/09/21 01:33:24;;;;;;;3.20;1.73;;;6.90;99.90;;;;;;5027352;28;20586;-75
2022/09/21 01:35:56;;;;;;;3.37;1.60;;;6.90;99.90;;;;;;5029281;28;20443;-75
2022/09/21 01:38:26;;;;;;;5.13;2.60;;;6.90;99.90;;;;;;5029009;28;20461;-75
2022/09/21 01:40:56;;;;;;;1.90;1.50;;;6.90;99.90;;;;;;5025275;28;20465;-75
2022/09/21 01:43:30;;;;;;;1.83;1.73;;;6.80;99.90;;;;;;5037140;28;20481;-75
2022/09/21 01:46:01;;;;;;;1.97;1.63;;;6.80;99.90;;;;;;5016215;28;20548;-75
2022/09/21 01:48:34;;;;;;;2.13;1.50;;;6.80;99.90;;;;;;5030490;28;20544;-75
2022/09/21 01:51:05;;;;;;;1.60;1.50;;;6.80;99.90;;;;;;5025475;28;20465;-75
2022/09/21 01:53:35;;;;;;;1.77;1.57;;;6.80;99.90;;;;;;5037255;27;20460;-76
2022/09/21 01:56:07;;;;;;;6.23;2.17;;;6.80;99.90;;;;;;5031734;28;20453;-75
2022/09/21 01:58:39;;;;;;;5.90;2.53;;;6.90;99.90;;;;;;5032054;28;20572;-75
2022/09/21 02:01:11;;;;;;;2.43;2.20;;;6.80;99.90;;;;;;5027862;28;20470;-75
2022/09/21 02:03:42;;;;;;;1.97;1.87;;;6.80;99.90;;;;;;5028804;28;20664;-75
2022/09/21 02:06:11;;;;;;;2.33;2.13;;;6.70;99.90;;;;;;5021062;28;20542;-75
2022/09/21 02:08:38;;;;;;;4.47;2.80;;;6.70;99.90;;;;;;5020651;28;20949;-75
2022/09/21 02:11:11;;;;;;;2.30;2.07;;;6.60;99.90;;;;;;5032523;28;21005;-75
2022/09/21 02:13:40;;;;;;;4.40;2.33;;;6.60;99.90;;;;;;5026195;28;20477;-75
2022/09/21 02:16:28;;;;;;;1.60;1.47;;;6.60;99.90;;;;;;5025544;28;20717;-75
2022/09/21 02:19:09;;;;;;;2.27;2.07;;;6.50;99.90;;;;;;5024814;28;20504;-75
2022/09/21 02:21:47;;;;;;;1.90;1.70;;;6.50;99.90;;;;;;5024796;28;20769;-75
2022/09/21 02:24:22;;;;;;;2.50;2.30;;;6.50;99.90;;;;;;5030255;28;20568;-75
2022/09/21 02:26:55;;;;;;;2.70;1.60;;;6.40;99.90;;;;;;5031929;28;20453;-75
2022/09/21 02:29:31;;;;;;;6.60;2.47;;;6.40;99.90;;;;;;5026581;28;20878;-75
2022/09/21 02:32:06;;;;;;;2.80;2.00;;;6.20;99.90;;;;;;5021046;28;20873;-75
2022/09/21 02:34:41;;;;;;;2.17;1.80;;;6.20;99.90;;;;;;5023412;28;20577;-75
2022/09/21 02:37:14;;;;;;;1.57;1.47;;;6.20;99.90;;;;;;5026921;28;20504;-75
2022/09/21 02:39:53;;;;;;;3.60;1.80;;;6.20;99.90;;;;;;5021867;28;20472;-75
2022/09/21 02:42:27;;;;;;;3.13;2.63;;;6.00;99.90;;;;;;5021156;28;20490;-75
2022/09/21 02:45:01;;;;;;;2.03;1.93;;;5.90;99.90;;;;;;5029194;28;20469;-74
2022/09/21 02:47:33;;;;;;;1.73;1.40;;;5.90;99.90;;;;;;5031341;28;20735;-74
2022/09/21 02:50:05;;;;;;;2.93;2.73;;;5.90;99.90;;;;;;5033298;28;21462;-74
2022/09/21 02:52:35;;;;;;;3.73;2.20;;;5.80;99.90;;;;;;5044054;27;20771;-74
2022/09/21 02:55:03;;;;;;;2.93;2.10;;;5.70;99.90;;;;;;5009033;28;20497;-75
2022/09/21 02:57:31;;;;;;;3.20;2.30;;;5.60;99.90;;;;;;5001918;28;20480;-74
2022/09/21 02:59:58;;;;;;;3.77;2.13;;;5.50;99.90;;;;;;5001320;28;20844;-75
2022/09/21 03:02:35;;;;;;;2.60;2.10;;;5.60;99.90;;;;;;5003585;28;20493;-74
2022/09/21 03:05:04;;;;;;;3.20;1.63;;;5.50;99.90;;;;;;5005375;27;20644;-74
2022/09/21 03:07:31;;;;;;;5.50;1.70;;;5.50;99.90;;;;;;5004084;28;20536;-74
2022/09/21 03:09:58;;;;;;;2.40;2.20;;;5.50;99.90;;;;;;5000436;28;20546;-75
2022/09/21 03:12:25;;;;;;;2.40;1.70;;;5.50;99.90;;;;;;5000697;28;20563;-74
2022/09/21 03:14:53;;;;;;;2.57;2.37;;;5.60;99.90;;;;;;5002490;28;20568;-74
2022/09/21 03:17:20;;;;;;;2.70;2.50;;;5.60;99.90;;;;;;5005085;28;20480;-74
2022/09/21 03:19:47;;;;;;;4.80;1.73;;;5.40;99.90;;;;;;4999270;28;20566;-75
2022/09/21 03:22:16;;;;;;;2.83;1.90;;;5.40;99.90;;;;;;5003241;28;20973;-74
2022/09/21 03:24:46;;;;;;;2.93;2.03;;;5.40;99.90;;;;;;5000105;28;20468;-75
2022/09/21 03:27:13;;;;;;;2.47;2.27;;;5.40;99.90;;;;;;5011318;28;20493;-74
2022/09/21 03:29:40;;;;;;;5.07;2.43;;;5.50;99.90;;;;;;5000671;28;21216;-75
2022/09/21 03:32:07;;;;;;;3.90;2.13;;;5.50;99.90;;;;;;5012964;28;20939;-75
2022/09/21 03:34:34;;;;;;;2.03;1.83;;;5.50;99.90;;;;;;5030285;28;20512;-74
2022/09/21 03:37:02;;;;;;;2.90;2.40;;;5.50;99.90;;;;;;5033987;28;20560;-74
2022/09/21 03:39:30;;;;;;;3.63;3.00;;;5.50;99.90;;;;;;5031961;28;20531;-74
2022/09/21 03:41:58;;;;;;;3.10;2.60;;;5.60;99.90;;;;;;5022826;28;20480;-74
2022/09/21 03:44:25;;;;;;;4.40;2.00;;;5.60;99.90;;;;;;5030568;28;21056;-74
2022/09/21 03:46:53;;;;;;;3.73;3.17;;;5.60;99.90;;;;;;5026359;28;20455;-74
2022/09/21 03:49:20;;;;;;;4.77;2.73;;;5.60;99.90;;;;;;5029145;28;20468;-74
2022/09/21 03:51:47;;;;;;;4.50;2.87;;;5.70;99.90;;;;;;5024649;28;20565;-75
2022/09/21 03:54:14;;;;;;;4.00;2.77;;;5.70;99.90;;;;;;5028606;28;20466;-75
2022/09/21 03:56:43;;;;;;;2.80;2.47;;;5.80;99.90;;;;;;5030088;28;20483;-74
2022/09/21 03:59:10;;;;;;;5.67;2.70;;;5.80;99.90;;;;;;5029820;28;20469;-75
2022/09/21 04:01:37;;;;;;;2.53;2.13;;;5.90;99.90;;;;;;5024850;27;20967;-74
2022/09/21 04:04:04;;;;;;;4.50;2.97;;;5.90;99.90;;;;;;5021454;28;20500;-74
2022/09/21 04:06:31;;;;;;;3.43;2.97;;;5.90;99.90;;;;;;5000762;27;20497;-74
2022/09/21 04:08:59;;;;;;;2.60;2.40;;;6.00;99.90;;;;;;5001271;28;21013;-74
2022/09/21 04:11:26;;;;;;;2.90;2.50;;;6.00;99.90;;;;;;5000943;28;20795;-74
2022/09/21 04:13:56;;;;;;;5.70;3.10;;;6.00;99.90;;;;;;4999458;28;20473;-74
2022/09/21 04:16:24;;;;;;;3.23;2.93;;;6.20;99.90;;;;;;5001290;28;20895;-74
2022/09/21 04:18:51;;;;;;;5.63;3.07;;;6.30;99.90;;;;;;4999708;28;20602;-74
2022/09/21 04:21:18;;;;;;;3.97;2.63;;;6.30;99.90;;;;;;5006319;28;20563;-75
2022/09/21 04:23:45;;;;;;;4.53;3.20;;;6.30;99.90;;;;;;5019532;28;20782;-75
2022/09/21 04:26:24;;;;;;;4.30;3.20;;;6.40;99.90;;;;;;5022940;28;20914;-74
2022/09/21 04:28:51;;;;;;;6.10;3.47;;;6.40;99.90;;;;;;5026013;28;20939;-75
2022/09/21 04:31:20;;;;;;;2.77;2.57;;;6.40;99.90;;;;;;5029575;28;21043;-74
2022/09/21 04:33:49;;;;;;;2.90;2.60;;;6.50;99.90;;;;;;5027113;28;20499;-75
2022/09/21 04:36:16;;;;;;;3.40;3.20;;;6.50;99.90;;;;;;5020328;28;20493;-75
2022/09/21 04:38:43;;;;;;;2.67;2.20;;;6.60;99.90;;;;;;5021575;28;20559;-74
2022/09/21 04:41:10;;;;;;;3.30;2.53;;;6.60;99.90;;;;;;5030640;28;20956;-74
2022/09/21 04:43:38;;;;;;;2.63;2.43;;;6.60;99.90;;;;;;5024119;28;20933;-74
2022/09/21 04:46:06;;;;;;;4.63;2.70;;;6.70;99.90;;;;;;5027854;28;20481;-74
2022/09/21 04:48:35;;;;;;;3.13;2.77;;;6.70;99.90;;;;;;5018181;28;20466;-75
2022/09/21 04:51:02;;;;;;;8.53;3.47;;;6.80;99.90;;;;;;5013050;28;20457;-75
2022/09/21 04:53:29;;;;;;;7.57;6.40;;;6.80;99.90;;;;;;5015846;28;20496;-75
2022/09/21 04:55:56;;;;;;;17.30;11.27;;;6.80;99.90;;;;;;5014564;28;20516;-74
2022/09/21 04:58:24;;;;;;;14.93;11.60;;;6.90;99.90;;;;;;5016438;28;20465;-74
2022/09/21 05:00:51;;;;;;;30.20;18.63;;;6.90;99.90;;;;;;5016132;28;20536;-75
2022/09/21 05:03:18;;;;;;;22.63;14.40;;;6.80;99.90;;;;;;5011980;28;20581;-75
2022/09/21 05:05:50;;;;;;;5.90;4.80;;;6.80;99.90;;;;;;5016498;28;20492;-74
2022/09/21 05:10:01;;;;;;;2.70;2.50;;;6.80;99.90;;;;;;5018026;28;20858;-74
2022/09/21 05:11:04;;;;;;;5.17;3.13;;;6.80;99.90;;;;;;5015926;28;20463;-75
2022/09/21 05:13:31;;;;;;;8.97;2.80;;;6.80;99.90;;;;;;5020280;28;20681;-74
2022/09/21 05:15:57;;;;;;;2.30;2.20;;;6.80;99.90;;;;;;5018046;28;20568;-75
2022/09/21 05:18:24;;;;;;;2.60;2.40;;;6.90;99.90;;;;;;5020345;28;20524;-74
2022/09/21 05:20:55;;;;;;;3.07;2.77;;;7.00;99.90;;;;;;5024129;28;20482;-74
2022/09/21 05:23:23;;;;;;;3.47;3.17;;;7.00;99.90;;;;;;5020991;28;20478;-75
2022/09/21 05:25:50;;;;;;;3.70;3.37;;;7.00;99.90;;;;;;5015635;28;20608;-75
2022/09/21 05:28:18;;;;;;;3.70;2.80;;;7.00;99.90;;;;;;5029347;28;20485;-74
2022/09/21 05:30:48;;;;;;;18.00;11.77;;;7.00;99.90;;;;;;5024690;28;20476;-74
2022/09/21 05:33:19;;;;;;;6.03;4.63;;;7.10;99.90;;;;;;5020524;28;20504;-75
2022/09/21 05:35:58;;;;;;;2.87;2.40;;;7.20;99.90;;;;;;5020323;28;20892;-75
2022/09/21 05:38:26;;;;;;;6.53;3.40;;;7.30;99.90;;;;;;5025630;28;20481;-75
2022/09/21 05:40:54;;;;;;;41.73;22.13;;;7.30;99.90;;;;;;5020011;28;20552;-74
2022/09/21 05:43:21;;;;;;;32.53;21.67;;;7.40;99.90;;;;;;5018717;28;20461;-75
2022/09/21 05:45:53;;;;;;;14.03;7.03;;;7.40;99.90;;;;;;5023117;28;20536;-74
2022/09/21 05:48:23;;;;;;;6.03;5.20;;;7.50;99.90;;;;;;5022273;28;20464;-74
2022/09/21 05:51:00;;;;;;;12.40;10.23;;;7.60;99.90;;;;;;5024438;28;20477;-74
2022/09/21 05:53:50;;;;;;;9.13;6.77;;;7.50;99.90;;;;;;5038657;27;20896;-75
2022/09/21 05:56:31;;;;;;;19.67;14.43;;;7.50;99.90;;;;;;5024792;28;21145;-75
2022/09/21 05:59:07;;;;;;;7.10;5.63;;;7.60;99.90;;;;;;5022056;28;20503;-75
2022/09/21 06:01:46;;;;;;;8.47;6.43;;;7.60;99.90;;;;;;5018840;28;21079;-75
2022/09/21 06:04:13;;;;;;;4.10;3.80;;;7.60;99.90;;;;;;5020607;28;20541;-75
2022/09/21 06:06:42;;;;;;;6.17;5.50;;;7.70;99.90;;;;;;5029575;28;20496;-75
2022/09/21 06:09:09;;;;;;;9.70;8.50;;;7.70;99.90;;;;;;5034643;28;20489;-75
2022/09/21 06:11:36;;;;;;;6.60;5.23;;;7.70;99.90;;;;;;5032291;28;20513;-75
2022/09/21 06:14:03;;;;;;;6.97;5.00;;;7.70;99.90;;;;;;5032396;28;20485;-75
2022/09/21 06:16:37;;;;;;;4.73;4.33;;;7.80;99.90;;;;;;5023578;28;20569;-75
2022/09/21 06:19:04;;;;;;;5.97;5.50;;;7.90;99.90;;;;;;5017743;28;20492;-75
2022/09/21 06:21:32;;;;;;;7.23;6.40;;;8.00;99.90;;;;;;5023061;28;20473;-75
2022/09/21 06:24:01;;;;;;;3.43;3.13;;;8.00;99.90;;;;;;5017052;28;20493;-75
2022/09/21 06:26:28;;;;;;;5.00;4.50;;;8.00;99.90;;;;;;5017807;28;20481;-75
2022/09/21 06:28:55;;;;;;;7.50;4.60;;;7.90;99.90;;;;;;5018390;28;20932;-75
2022/09/21 06:31:22;;;;;;;5.80;4.70;;;7.80;99.90;;;;;;5019447;28;20947;-75
2022/09/21 06:33:49;;;;;;;4.93;4.03;;;7.80;99.90;;;;;;5014255;28;20472;-75
2022/09/21 06:36:17;;;;;;;3.80;3.33;;;7.80;99.90;;;;;;5016041;28;20613;-75
2022/09/21 06:38:44;;;;;;;3.83;3.53;;;7.80;99.90;;;;;;5018177;28;20465;-75
2022/09/21 06:41:13;;;;;;;3.90;3.10;;;7.80;99.90;;;;;;5014338;28;20587;-75
2022/09/21 06:43:40;;;;;;;3.60;2.80;;;7.90;99.90;;;;;;5021234;28;20607;-74
2022/09/21 06:46:07;;;;;;;5.30;2.83;;;8.00;99.90;;;;;;5017111;28;20929;-75
2022/09/21 06:48:34;;;;;;;4.33;4.00;;;8.00;99.90;;;;;;5016537;28;20568;-75
2022/09/21 06:51:04;;;;;;;6.27;5.40;;;8.10;99.90;;;;;;5013491;28;20548;-75
2022/09/21 06:53:32;;;;;;;10.20;7.73;;;8.10;99.90;;;;;;5014082;28;20543;-75
2022/09/21 06:56:03;;;;;;;12.87;9.07;;;8.20;99.90;;;;;;5015593;28;20987;-74
2022/09/21 06:58:33;;;;;;;7.80;7.03;;;8.20;99.90;;;;;;5015572;28;20497;-75
2022/09/21 07:01:05;;;;;;;6.77;5.30;;;8.40;99.90;;;;;;5011433;28;20486;-74
2022/09/21 07:03:32;;;;;;;6.50;4.73;;;8.40;99.90;;;;;;5021000;28;20471;-75
2022/09/21 07:05:59;;;;;;;5.20;4.70;;;8.40;99.90;;;;;;5015244;28;20556;-74
2022/09/21 07:08:26;;;;;;;6.60;6.00;;;8.50;99.90;;;;;;5013438;28;20565;-74
2022/09/21 07:10:53;;;;;;;8.43;5.10;;;8.40;99.90;;;;;;5017964;28;20777;-74
2022/09/21 07:13:20;;;;;;;5.77;5.00;;;8.40;99.90;;;;;;5017912;28;20489;-74
2022/09/21 07:15:49;;;;;;;7.13;4.67;;;8.40;99.90;;;;;;5012197;28;20493;-75
2022/09/21 07:18:16;;;;;;;6.03;4.63;;;8.50;99.90;;;;;;5020824;28;20984;-75
2022/09/21 07:20:43;;;;;;;5.13;3.80;;;8.60;99.90;;;;;;5028037;28;20980;-74
2022/09/21 07:23:13;;;;;;;5.73;5.13;;;8.70;99.90;;;;;;5016543;28;20469;-75
2022/09/21 07:25:39;;;;;;;4.93;4.53;;;9.00;99.90;;;;;;5022103;28;20465;-75
2022/09/21 07:28:07;;;;;;;5.20;4.70;;;9.20;99.90;;;;;;5022414;28;20485;-74
2022/09/21 07:30:33;;;;;;;4.87;4.27;;;9.30;99.90;;;;;;5020334;28;20485;-75
2022/09/21 07:33:02;;;;;;;3.90;3.60;;;9.20;99.90;;;;;;5023887;28;20547;-74
2022/09/21 07:35:29;;;;;;;4.57;4.17;;;9.10;99.90;;;;;;5025068;28;20833;-74
2022/09/21 07:37:58;;;;;;;3.93;3.60;;;9.30;99.90;;;;;;5019326;28;20557;-75
2022/09/21 07:40:25;;;;;;;6.47;2.87;;;9.30;99.90;;;;;;5010217;28;20540;-75
2022/09/21 07:42:52;;;;;;;3.73;3.33;;;9.20;99.90;;;;;;5019619;28;20824;-75
2022/09/21 07:45:19;;;;;;;3.83;3.20;;;9.20;99.90;;;;;;5021002;28;20987;-75
2022/09/21 07:47:46;;;;;;;3.20;3.00;;;9.10;99.90;;;;;;5020111;28;20489;-75
2022/09/21 07:50:14;;;;;;;3.90;3.60;;;9.30;99.90;;;;;;5023000;28;20461;-75
2022/09/21 07:52:42;;;;;;;5.20;3.90;;;9.30;99.90;;;;;;5010941;28;20561;-75
2022/09/21 07:55:10;;;;;;;6.07;4.27;;;9.30;99.90;;;;;;5014297;28;20918;-75
2022/09/21 08:00:21;;;;;;;5.33;3.77;;;9.30;99.90;;;;;;5010301;28;20469;-75
2022/09/21 08:02:48;;;;;;;4.27;2.53;;;9.30;99.90;;;;;;5004743;28;21042;-75
2022/09/21 08:05:16;;;;;;;2.60;2.10;;;9.30;99.90;;;;;;5003932;28;20592;-75
2022/09/21 08:07:43;;;;;;;3.70;3.30;;;9.20;99.90;;;;;;5001653;28;20466;-75
2022/09/21 08:10:10;;;;;;;7.73;3.07;;;9.30;99.90;;;;;;5001044;28;21964;-75
2022/09/21 08:12:37;;;;;;;3.27;3.00;;;9.20;99.90;;;;;;5000231;28;20481;-75
2022/09/21 08:15:05;;;;;;;4.10;2.70;;;9.20;99.90;;;;;;5001026;28;20469;-75
2022/09/21 08:17:32;;;;;;;2.67;2.47;;;9.30;99.90;;;;;;5019443;28;20569;-75
2022/09/21 08:19:59;;;;;;;4.07;3.20;;;9.50;99.90;;;;;;5017967;28;20597;-75
2022/09/21 08:22:27;;;;;;;2.70;2.50;;;9.60;99.90;;;;;;5019276;28;20849;-75
2022/09/21 08:24:55;;;;;;;2.80;2.37;;;9.50;99.90;;;;;;5018397;28;20505;-75
2022/09/21 08:27:23;;;;;;;3.53;3.23;;;9.60;99.90;;;;;;5012393;28;20549;-75
2022/09/21 08:29:50;;;;;;;3.57;2.47;;;9.80;99.90;;;;;;5010041;28;20486;-75
2022/09/21 08:32:17;;;;;;;4.03;2.80;;;9.90;99.90;;;;;;5019765;27;20564;-75
2022/09/21 08:34:44;;;;;;;3.70;2.90;;;10.10;99.90;;;;;;5028657;27;20565;-75
2022/09/21 08:37:11;;;;;;;2.47;2.27;;;10.10;99.90;;;;;;5020918;28;20581;-75
2022/09/21 08:39:39;;;;;;;3.87;3.57;;;10.20;99.90;;;;;;5020293;28;20461;-75
2022/09/21 08:42:34;;;;;;;4.53;3.27;;;10.10;99.90;;;;;;5018750;27;20929;-75
2022/09/21 08:45:06;;;;;;;5.70;4.10;;;10.30;99.90;;;;;;5009073;28;20548;-75
2022/09/21 08:47:39;;;;;;;3.50;3.20;;;10.30;99.90;;;;;;5011315;28;20465;-75
2022/09/21 08:50:22;;;;;;;2.60;2.40;;;10.50;99.90;;;;;;5007702;28;20565;-74
2022/09/21 08:52:52;;;;;;;3.80;3.17;;;10.60;99.90;;;;;;5007557;27;20481;-75
2022/09/21 08:55:23;;;;;;;3.50;3.30;;;10.80;99.90;;;;;;5014788;28;20968;-75
2022/09/21 08:57:50;;;;;;;3.40;3.00;;;10.70;99.90;;;;;;5010692;28;20558;-75
2022/09/21 09:00:19;;;;;;;2.67;2.47;;;10.80;99.90;;;;;;5012853;28;20466;-74
2022/09/21 09:03:28;;;;;;;2.60;2.40;;;10.70;99.90;;;;;;5016564;28;20462;-74
2022/09/21 09:05:59;;;;;;;5.47;2.80;;;10.80;99.90;;;;;;5023034;28;20489;-74
2022/09/21 09:08:45;;;;;;;3.60;3.17;;;10.80;99.90;;;;;;5022656;28;20482;-74
2022/09/21 09:11:23;;;;;;;3.00;2.30;;;11.00;99.90;;;;;;5018259;28;20493;-75
2022/09/21 09:14:19;;;;;;;3.33;2.80;;;11.00;99.90;;;;;;5016452;28;20501;-74
2022/09/21 09:16:57;;;;;;;2.40;2.07;;;11.00;99.90;;;;;;5007167;28;20576;-75
2022/09/21 09:19:33;;;;;;;3.00;2.60;;;11.00;99.90;;;;;;5020153;28;20497;-74
2022/09/21 09:22:04;;;;;;;4.30;3.17;;;11.20;99.90;;;;;;5013385;28;20545;-74
2022/09/21 09:24:36;;;;;;;2.93;2.60;;;11.20;99.90;;;;;;5017175;28;20489;-74
2022/09/21 09:27:14;;;;;;;3.17;2.30;;;11.40;99.90;;;;;;5029840;28;20485;-74
2022/09/21 09:29:48;;;;;;;3.13;2.83;;;11.30;99.90;;;;;;5024417;28;20475;-74
2022/09/21 09:32:17;;;;;;;2.73;2.60;;;11.50;99.90;;;;;;5009118;28;20458;-74
2022/09/21 09:34:53;;;;;;;3.23;3.03;;;11.70;99.90;;;;;;5030959;27;20497;-74
2022/09/21 09:37:27;;;;;;;2.53;2.40;;;11.70;99.90;;;;;;5021029;28;20569;-74
2022/09/21 09:39:56;;;;;;;3.00;2.10;;;11.80;99.90;;;;;;5016912;28;20919;-74
2022/09/21 09:42:44;;;;;;;2.50;2.30;;;11.90;99.90;;;;;;5021854;27;20475;-74
2022/09/21 09:45:26;;;;;;;3.00;2.80;;;11.90;99.90;;;;;;5023508;27;20493;-74
2022/09/21 09:48:06;;;;;;;2.90;2.40;;;12.10;99.90;;;;;;5020050;28;20465;-74
2022/09/21 09:50:35;;;;;;;3.17;2.97;;;12.00;99.90;;;;;;5035684;27;20497;-74
2022/09/21 09:53:07;;;;;;;4.03;2.30;;;12.10;99.90;;;;;;5053959;27;20490;-74
2022/09/21 09:55:39;;;;;;;4.40;3.50;;;12.10;99.90;;;;;;5021531;28;20462;-74
2022/09/21 09:58:17;;;;;;;5.33;4.40;;;12.00;99.90;;;;;;5021083;28;21141;-74
2022/09/21 10:00:45;;;;;;;4.93;3.80;;;12.30;99.90;;;;;;5023715;28;20456;-74
2022/09/21 10:03:17;;;;;;;2.97;2.77;;;12.20;99.90;;;;;;5019625;28;20516;-74
2022/09/21 10:05:45;;;;;;;10.47;6.20;;;12.40;99.90;;;;;;5023677;28;20552;-74
2022/09/21 10:08:29;;;;;;;30.63;17.70;;;12.40;99.90;;;;;;5020261;28;20490;-74
2022/09/21 10:10:56;;;;;;;14.47;9.27;;;12.50;99.90;;;;;;5024028;28;20914;-75
2022/09/21 10:13:29;;;;;;;1.70;1.60;;;12.70;99.90;;;;;;5024250;28;20557;-74
2022/09/21 10:15:59;;;;;;;2.33;2.23;;;12.90;99.90;;;;;;5014955;28;21120;-74
2022/09/21 10:18:32;;;;;;;1.67;1.57;;;12.80;99.90;;;;;;5032632;28;20495;-74
2022/09/21 10:21:02;;;;;;;1.57;1.47;;;12.90;99.90;;;;;;5012885;28;20496;-74
2022/09/21 10:23:31;;;;;;;4.20;2.03;;;12.90;99.90;;;;;;5062076;28;20844;-75
2022/09/21 10:26:02;;;;;;;1.60;1.50;;;12.80;99.90;;;;;;5040927;27;20547;-75
2022/09/21 10:28:31;;;;;;;2.07;1.97;;;13.10;99.90;;;;;;5020524;28;20449;-75
2022/09/21 10:31:25;;;;;;;2.60;1.70;;;13.00;99.90;;;;;;5016284;28;20496;-74
2022/09/21 10:34:05;;;;;;;2.47;2.27;;;12.90;99.90;;;;;;5025434;28;20491;-75
2022/09/21 10:36:34;;;;;;;3.27;1.23;;;13.20;99.90;;;;;;5017923;28;20571;-74
2022/09/21 10:39:28;;;;;;;2.93;1.30;;;13.10;99.90;;;;;;5018131;28;20873;-74
2022/09/21 10:42:02;;;;;;;1.30;1.20;;;13.20;99.90;;;;;;4960829;28;20498;-74
2022/09/21 10:44:41;;;;;;;1.83;1.73;;;13.60;99.90;;;;;;5053499;28;20497;-74
2022/09/21 10:47:33;;;;;;;1.93;1.73;;;13.50;99.90;;;;;;5019798;28;20467;-75
2022/09/21 10:50:04;;;;;;;2.13;1.57;;;13.60;99.90;;;;;;5018430;28;21093;-75
2022/09/21 10:52:35;;;;;;;2.73;1.70;;;13.70;99.90;;;;;;5033679;27;20499;-75
2022/09/21 10:55:02;;;;;;;1.73;1.37;;;13.50;99.90;;;;;;5032396;28;21065;-74
2022/09/21 10:57:31;;;;;;;1.83;0.90;;;13.20;99.90;;;;;;5019712;28;20513;-74
2022/09/21 11:00:12;;;;;;;1.60;1.30;;;13.60;99.90;;;;;;5017496;27;21552;-74
2022/09/21 11:02:41;;;;;;;1.30;1.10;;;13.50;99.90;;;;;;5022782;28;20495;-74
2022/09/21 11:05:14;;;;;;;2.43;1.13;;;13.50;99.90;;;;;;5013014;28;20533;-74
2022/09/21 11:07:47;;;;;;;2.33;1.27;;;13.70;99.90;;;;;;5014759;28;20863;-75
2022/09/21 11:10:20;;;;;;;1.40;1.17;;;14.00;99.90;;;;;;5020403;28;20486;-75
2022/09/21 11:12:55;;;;;;;1.40;1.30;;;14.10;99.90;;;;;;5017932;28;20492;-75
2022/09/21 11:15:36;;;;;;;3.43;1.20;;;14.20;99.90;;;;;;5019104;27;20781;-75
2022/09/21 11:18:10;;;;;;;1.60;1.47;;;14.30;99.90;;;;;;5020758;28;20798;-75
2022/09/21 11:20:43;;;;;;;2.30;1.33;;;14.20;99.90;;;;;;5021337;28;20472;-74
2022/09/21 11:23:21;;;;;;;1.20;0.90;;;14.20;99.90;;;;;;5012636;28;20461;-75
2022/09/21 11:25:58;;;;;;;1.03;0.97;;;14.10;99.90;;;;;;5014371;28;20544;-75
2022/09/21 11:28:32;;;;;;;1.53;1.17;;;14.10;99.90;;;;;;5029963;27;20615;-75
2022/09/21 11:31:20;;;;;;;2.70;1.30;;;14.10;99.90;;;;;;5032569;28;20464;-74
2022/09/21 11:34:02;;;;;;;2.23;1.83;;;14.00;99.90;;;;;;5025817;28;20550;-75
2022/09/21 11:36:42;;;;;;;1.30;1.10;;;14.10;99.90;;;;;;5026621;28;20933;-76
2022/09/21 11:39:21;;;;;;;1.87;0.90;;;14.30;99.90;;;;;;5025417;28;21235;-76
2022/09/21 11:42:03;;;;;;;3.27;1.00;;;14.30;99.90;;;;;;5031727;28;20493;-77
2022/09/21 11:44:44;;;;;;;2.03;1.00;;;14.40;99.90;;;;;;5031435;27;20489;-77
2022/09/21 11:47:24;;;;;;;1.00;0.90;;;14.70;99.90;;;;;;5024187;28;20896;-77
2022/09/21 11:50:07;;;;;;;1.20;1.10;;;14.70;99.90;;;;;;5033615;28;20852;-77
2022/09/21 11:52:51;;;;;;;1.00;0.90;;;14.80;99.90;;;;;;5019921;28;20548;-76
2022/09/21 11:55:31;;;;;;;1.30;1.03;;;14.70;99.90;;;;;;4998846;28;20473;-76
2022/09/21 11:58:08;;;;;;;1.87;1.10;;;14.70;99.90;;;;;;5007005;27;21079;-76
2022/09/21 12:00:44;;;;;;;1.57;0.70;;;14.70;99.90;;;;;;5016020;27;20460;-76
2022/09/21 12:03:40;;;;;;;1.00;0.70;;;14.80;99.90;;;;;;5018829;27;20784;-76
2022/09/21 12:06:17;;;;;;;1.50;0.67;;;14.70;97.70;;;;;;5014333;28;20462;-75
2022/09/21 12:09:02;;;;;;;1.13;0.67;;;14.90;99.30;;;;;;5017602;28;20446;-76
2022/09/21 12:11:36;;;;;;;2.10;0.70;;;15.10;97.70;;;;;;5017148;28;20904;-76
2022/09/21 12:14:14;;;;;;;2.87;2.23;;;15.00;98.20;;;;;;5019040;28;20484;-76
2022/09/21 12:16:50;;;;;;;1.10;0.90;;;15.10;99.90;;;;;;5022187;27;20544;-75
2022/09/21 12:19:32;;;;;;;8.17;4.50;;;15.20;96.10;;;;;;5027247;27;21081;-75
2022/09/21 12:22:05;;;;;;;2.13;0.87;;;15.30;96.20;;;;;;5012972;28;20463;-76
2022/09/21 12:24:36;;;;;;;2.80;0.77;;;15.30;95.80;;;;;;5013431;28;20579;-76
2022/09/21 12:27:09;;;;;;;1.20;1.00;;;15.20;96.00;;;;;;5008177;28;20512;-76
2022/09/21 12:29:42;;;;;;;2.30;2.10;;;15.20;97.20;;;;;;5007821;28;20959;-75
2022/09/21 12:32:19;;;;;;;1.40;1.10;;;15.40;98.50;;;;;;5018846;28;20463;-76
2022/09/21 12:34:53;;;;;;;1.47;0.97;;;15.00;96.60;;;;;;5015751;28;20542;-75
2022/09/21 12:37:26;;;;;;;0.90;0.90;;;15.00;97.00;;;;;;5025582;27;20578;-75
2022/09/21 12:39:58;;;;;;;1.03;1.03;;;15.10;97.20;;;;;;5014906;28;20497;-75
2022/09/21 12:42:31;;;;;;;1.37;0.73;;;14.80;98.40;;;;;;5013113;28;21007;-76
2022/09/21 12:45:04;;;;;;;1.00;0.90;;;15.00;96.80;;;;;;5025368;27;20528;-76
2022/09/21 12:47:46;;;;;;;40.27;28.33;;;15.20;98.60;;;;;;5030628;27;20541;-76
2022/09/21 12:50:21;;;;;;;12.20;6.60;;;15.30;99.80;;;;;;5018342;27;20570;-75
2022/09/21 12:52:49;;;;;;;1.50;0.87;;;15.40;98.50;;;;;;5021222;27;20546;-75
2022/09/21 12:55:36;;;;;;;3.10;2.90;;;15.30;96.30;;;;;;5010796;27;20468;-76
2022/09/21 12:58:13;;;;;;;1.00;0.80;;;15.50;96.80;;;;;;5041105;27;20573;-76
2022/09/21 13:46:02;;;;;;;0.80;0.63;;;14.70;99.30;;;;;;5025179;28;21164;-76
2022/09/21 13:48:29;;;;;;;0.70;0.60;;;15.20;94.10;;;;;;5018168;28;20496;-76
2022/09/21 13:51:06;;;;;;;0.90;0.50;;;15.10;94.60;;;;;;5014941;28;20496;-76
2022/09/21 13:53:39;;;;;;;0.90;0.70;;;15.00;95.00;;;;;;5017747;28;20615;-76
2022/09/21 13:56:10;;;;;;;1.00;0.60;;;14.60;94.00;;;;;;5013060;28;20552;-76
2022/09/21 13:58:44;;;;;;;2.47;0.70;;;14.50;95.00;;;;;;5019688;28;20480;-76
2022/09/21 14:01:20;;;;;;;1.10;0.50;;;14.40;94.80;;;;;;5013575;28;20462;-76
2022/09/21 14:03:50;;;;;;;0.90;0.50;;;14.40;94.80;;;;;;5019325;28;20457;-76
2022/09/21 14:06:21;;;;;;;1.13;0.80;;;14.20;95.40;;;;;;5018930;28;20460;-76